sensor_id;sensor_type;location;lat;lon;timestamp;pressure;altitude;pressure_sealevel;temperature;humidity
58757;BME280;44527;47.460;19.016;2023-09-18T13:06:19;100194.69;;;27.01;55.99
58757;BME280;44527;47.460;19.016;2023-09-18T13:09:22;100193.56;;;27.29;56.13
58757;BME280;44527;47.460;19.016;2023-09-18T13:12:48;100188.25;;;27.54;54.50
58757;BME280;44527;47.460;19.016;2023-09-18T13:16:00;100190.81;;;27.74;53.59
58757;BME280;44527;47.460;19.016;2023-09-18T13:19:08;100174.41;;;27.82;53.84
58757;BME280;44527;47.460;19.016;2023-09-18T13:22:22;100177.78;;;28.03;53.37
58757;BME280;44527;47.460;19.016;2023-09-18T13:25:32;100167.69;;;27.91;53.52
58757;BME280;44527;47.460;19.016;2023-09-18T13:28:37;100168.25;;;27.68;52.88
58757;BME280;44527;47.460;19.016;2023-09-18T13:31:42;100170.38;;;27.60;53.38
58757;BME280;44527;47.460;19.016;2023-09-18T13:34:45;100162.97;;;27.48;53.43
58757;BME280;44527;47.460;19.016;2023-09-18T13:37:49;100149.69;;;27.54;53.57
58757;BME280;44527;47.460;19.016;2023-09-18T13:40:53;100144.97;;;27.81;53.38
58757;BME280;44527;47.460;19.016;2023-09-18T13:43:59;100136.00;;;27.87;53.59
58757;BME280;44527;47.460;19.016;2023-09-18T13:47:05;100129.50;;;27.94;53.17
58757;BME280;44527;47.460;19.016;2023-09-18T13:50:08;100127.72;;;27.82;53.17
58757;BME280;44527;47.460;19.016;2023-09-18T13:53:15;100125.13;;;27.68;53.24
58757;BME280;44527;47.460;19.016;2023-09-18T13:56:18;100117.69;;;27.32;53.84
58757;BME280;44527;47.460;19.016;2023-09-18T13:59:24;100115.28;;;27.11;55.12
58757;BME280;44527;47.460;19.016;2023-09-18T14:02:27;100121.16;;;26.94;55.30
58757;BME280;44527;47.460;19.016;2023-09-18T14:05:31;100110.44;;;26.88;55.23
58757;BME280;44527;47.460;19.016;2023-09-18T14:08:36;100104.06;;;26.75;55.80
58757;BME280;44527;47.460;19.016;2023-09-18T14:11:41;100106.34;;;26.65;56.62
58757;BME280;44527;47.460;19.016;2023-09-18T14:14:44;100097.66;;;26.70;56.52
58757;BME280;44527;47.460;19.016;2023-09-18T14:17:47;100096.84;;;26.69;56.59
58757;BME280;44527;47.460;19.016;2023-09-18T14:20:51;100095.78;;;26.70;56.41
58757;BME280;44527;47.460;19.016;2023-09-18T14:23:55;100086.47;;;26.73;56.47
58757;BME280;44527;47.460;19.016;2023-09-18T14:26:57;100092.88;;;26.78;56.42
58757;BME280;44527;47.460;19.016;2023-09-18T14:30:01;100076.66;;;26.85;55.90
58757;BME280;44527;47.460;19.016;2023-09-18T14:33:08;100071.69;;;26.89;55.22
58757;BME280;44527;47.460;19.016;2023-09-18T14:36:11;100072.75;;;26.81;54.93
58757;BME280;44527;47.460;19.016;2023-09-18T14:39:14;100073.41;;;26.76;55.64
58757;BME280;44527;47.460;19.016;2023-09-18T14:42:16;100084.22;;;26.63;55.66
58757;BME280;44527;47.460;19.016;2023-09-18T14:45:19;100073.03;;;26.59;55.53
58757;BME280;44527;47.460;19.016;2023-09-18T14:48:21;100072.22;;;26.59;55.50
58757;BME280;44527;47.460;19.016;2023-09-18T14:51:24;100068.31;;;26.55;55.66
58757;BME280;44527;47.460;19.016;2023-09-18T14:54:27;100058.31;;;26.62;55.03
58757;BME280;44527;47.460;19.016;2023-09-18T14:57:29;100062.25;;;26.66;55.38
58757;BME280;44527;47.460;19.016;2023-09-18T15:00:32;100059.16;;;26.69;55.03
58757;BME280;44527;47.460;19.016;2023-09-18T15:03:36;100057.63;;;26.80;54.85
58757;BME280;44527;47.460;19.016;2023-09-18T15:06:39;100053.87;;;26.81;55.08
58757;BME280;44527;47.460;19.016;2023-09-18T15:09:41;100056.59;;;26.81;55.38
58757;BME280;44527;47.460;19.016;2023-09-18T15:12:44;100042.50;;;26.86;55.53
58757;BME280;44527;47.460;19.016;2023-09-18T15:15:46;100044.94;;;26.87;54.78
58757;BME280;44527;47.460;19.016;2023-09-18T15:18:49;100043.53;;;26.85;55.05
58757;BME280;44527;47.460;19.016;2023-09-18T15:21:59;100039.41;;;26.82;54.98
58757;BME280;44527;47.460;19.016;2023-09-18T15:25:04;100038.59;;;26.81;55.25
58757;BME280;44527;47.460;19.016;2023-09-18T15:28:06;100024.06;;;26.83;53.73
58757;BME280;44527;47.460;19.016;2023-09-18T15:31:09;100025.56;;;26.78;54.03
58757;BME280;44527;47.460;19.016;2023-09-18T15:34:12;100019.59;;;26.70;54.69
58757;BME280;44527;47.460;19.016;2023-09-18T15:37:15;100005.94;;;26.65;54.49
58757;BME280;44527;47.460;19.016;2023-09-18T15:40:19;100002.87;;;26.54;55.06
58757;BME280;44527;47.460;19.016;2023-09-18T15:43:25;99996.25;;;26.57;54.92
58757;BME280;44527;47.460;19.016;2023-09-18T15:46:28;99991.09;;;26.49;55.18
58757;BME280;44527;47.460;19.016;2023-09-18T15:49:32;99993.16;;;26.47;55.21
58757;BME280;44527;47.460;19.016;2023-09-18T15:52:34;99974.31;;;26.47;54.70
58757;BME280;44527;47.460;19.016;2023-09-18T15:55:38;99978.06;;;26.46;54.09
58757;BME280;44527;47.460;19.016;2023-09-18T15:58:41;99978.69;;;26.41;54.33
58757;BME280;44527;47.460;19.016;2023-09-18T16:01:44;99988.66;;;26.34;54.65
58757;BME280;44527;47.460;19.016;2023-09-18T16:04:47;99983.50;;;26.26;55.37
58757;BME280;44527;47.460;19.016;2023-09-18T16:07:50;99981.84;;;26.25;55.04
58757;BME280;44527;47.460;19.016;2023-09-18T16:10:54;99975.69;;;26.18;55.66
58757;BME280;44527;47.460;19.016;2023-09-18T16:13:56;99969.69;;;26.16;55.28
58757;BME280;44527;47.460;19.016;2023-09-18T16:16:59;99970.53;;;26.09;55.41
58757;BME280;44527;47.460;19.016;2023-09-18T16:20:06;99956.69;;;26.06;55.08
58757;BME280;44527;47.460;19.016;2023-09-18T16:23:09;99960.44;;;25.92;55.73
58757;BME280;44527;47.460;19.016;2023-09-18T16:26:12;99953.63;;;25.82;55.67
58757;BME280;44527;47.460;19.016;2023-09-18T16:29:14;99937.50;;;25.76;55.87
58757;BME280;44527;47.460;19.016;2023-09-18T16:32:17;99939.19;;;25.63;56.51
58757;BME280;44527;47.460;19.016;2023-09-18T16:35:21;99933.59;;;25.52;56.65
58757;BME280;44527;47.460;19.016;2023-09-18T16:38:24;99942.72;;;25.44;56.69
58757;BME280;44527;47.460;19.016;2023-09-18T16:41:27;99941.47;;;25.40;56.70
58757;BME280;44527;47.460;19.016;2023-09-18T16:44:30;99938.56;;;25.28;57.23
58757;BME280;44527;47.460;19.016;2023-09-18T16:47:32;99934.84;;;25.16;58.19
58757;BME280;44527;47.460;19.016;2023-09-18T16:50:37;99933.37;;;24.93;58.65
58757;BME280;44527;47.460;19.016;2023-09-18T16:53:40;99930.88;;;24.72;61.05
58757;BME280;44527;47.460;19.016;2023-09-18T16:56:42;99922.34;;;24.48;62.11
58757;BME280;44527;47.460;19.016;2023-09-18T16:59:45;99924.94;;;24.28;62.96
58757;BME280;44527;47.460;19.016;2023-09-18T17:02:48;99919.94;;;24.12;64.01
58757;BME280;44527;47.460;19.016;2023-09-18T17:05:53;99929.34;;;24.01;64.97
58757;BME280;44527;47.460;19.016;2023-09-18T17:08:56;99924.75;;;23.89;65.63
58757;BME280;44527;47.460;19.016;2023-09-18T17:11:58;99914.41;;;23.79;66.14
58757;BME280;44527;47.460;19.016;2023-09-18T17:15:02;99919.09;;;23.70;67.64
58757;BME280;44527;47.460;19.016;2023-09-18T17:18:07;99905.22;;;23.60;67.88
58757;BME280;44527;47.460;19.016;2023-09-18T17:21:10;99908.03;;;23.52;68.25
58757;BME280;44527;47.460;19.016;2023-09-18T17:24:12;99907.53;;;23.42;68.80
58757;BME280;44527;47.460;19.016;2023-09-18T17:27:15;99905.75;;;23.49;68.01
58757;BME280;44527;47.460;19.016;2023-09-18T17:30:17;99907.38;;;23.50;68.74
58757;BME280;44527;47.460;19.016;2023-09-18T17:33:20;99914.00;;;23.54;67.49
58757;BME280;44527;47.460;19.016;2023-09-18T17:36:22;99913.81;;;23.55;67.47
58757;BME280;44527;47.460;19.016;2023-09-18T17:39:25;99914.00;;;23.54;67.85
58757;BME280;44527;47.460;19.016;2023-09-18T17:42:27;99909.66;;;23.53;67.44
58757;BME280;44527;47.460;19.016;2023-09-18T17:45:30;99916.97;;;23.66;67.32
58757;BME280;44527;47.460;19.016;2023-09-18T17:48:36;99908.91;;;23.66;65.78
58757;BME280;44527;47.460;19.016;2023-09-18T17:51:38;99909.84;;;23.73;65.88
58757;BME280;44527;47.460;19.016;2023-09-18T17:54:41;99916.06;;;23.80;64.98
58757;BME280;44527;47.460;19.016;2023-09-18T17:57:43;99906.78;;;23.82;64.56
58757;BME280;44527;47.460;19.016;2023-09-18T18:00:47;99901.87;;;23.93;63.77
58757;BME280;44527;47.460;19.016;2023-09-18T18:03:50;99898.16;;;23.87;64.16
58757;BME280;44527;47.460;19.016;2023-09-18T18:06:53;99892.78;;;23.87;63.31
58757;BME280;44527;47.460;19.016;2023-09-18T18:09:56;99899.59;;;23.83;63.16
58757;BME280;44527;47.460;19.016;2023-09-18T18:12:58;99895.06;;;23.90;62.68
58757;BME280;44527;47.460;19.016;2023-09-18T18:16:01;99893.84;;;23.93;62.24
58757;BME280;44527;47.460;19.016;2023-09-18T18:19:06;99894.87;;;23.92;62.42
58757;BME280;44527;47.460;19.016;2023-09-18T18:22:09;99892.38;;;23.90;62.25
58757;BME280;44527;47.460;19.016;2023-09-18T18:25:12;99895.28;;;23.89;62.61
58757;BME280;44527;47.460;19.016;2023-09-18T18:28:16;99891.56;;;23.90;61.92
58757;BME280;44527;47.460;19.016;2023-09-18T18:31:18;99898.16;;;23.87;62.64
58757;BME280;44527;47.460;19.016;2023-09-18T18:34:22;99894.66;;;23.87;61.45
58757;BME280;44527;47.460;19.016;2023-09-18T18:37:26;99894.47;;;23.88;61.72
58757;BME280;44527;47.460;19.016;2023-09-18T18:40:29;99891.31;;;23.78;62.30
58757;BME280;44527;47.460;19.016;2023-09-18T18:43:35;99891.31;;;23.78;61.82
58757;BME280;44527;47.460;19.016;2023-09-18T18:46:42;99893.13;;;23.71;62.11
58757;BME280;44527;47.460;19.016;2023-09-18T18:49:44;99893.13;;;23.71;62.09
58757;BME280;44527;47.460;19.016;2023-09-18T18:52:47;99889.94;;;23.60;62.41
58757;BME280;44527;47.460;19.016;2023-09-18T18:55:50;99886.44;;;23.60;62.52
58757;BME280;44527;47.460;19.016;2023-09-18T18:58:54;99886.59;;;23.52;62.94
58757;BME280;44527;47.460;19.016;2023-09-18T19:01:56;99894.59;;;23.45;63.48
58757;BME280;44527;47.460;19.016;2023-09-18T19:04:59;99897.81;;;23.34;63.73
58757;BME280;44527;47.460;19.016;2023-09-18T19:08:02;99894.87;;;23.29;63.80
58757;BME280;44527;47.460;19.016;2023-09-18T19:11:05;99886.87;;;23.35;64.27
58757;BME280;44527;47.460;19.016;2023-09-18T19:14:07;99889.81;;;23.40;63.56
58757;BME280;44527;47.460;19.016;2023-09-18T19:17:10;99879.91;;;23.41;63.26
58757;BME280;44527;47.460;19.016;2023-09-18T19:20:12;99878.75;;;23.50;62.60
58757;BME280;44527;47.460;19.016;2023-09-18T19:23:15;99877.53;;;23.53;62.42
58757;BME280;44527;47.460;19.016;2023-09-18T19:26:20;99882.06;;;23.52;62.50
58757;BME280;44527;47.460;19.016;2023-09-18T19:29:24;99876.12;;;23.57;62.29
58757;BME280;44527;47.460;19.016;2023-09-18T19:32:30;99872.84;;;23.61;61.93
58757;BME280;44527;47.460;19.016;2023-09-18T19:35:33;99872.22;;;23.59;61.54
58757;BME280;44527;47.460;19.016;2023-09-18T19:38:36;99871.37;;;23.59;61.60
58757;BME280;44527;47.460;19.016;2023-09-18T19:41:39;99869.53;;;23.59;61.84
58757;BME280;44527;47.460;19.016;2023-09-18T19:44:41;99867.03;;;23.51;62.08
58757;BME280;44527;47.460;19.016;2023-09-18T19:47:47;99866.34;;;23.43;62.13
58757;BME280;44527;47.460;19.016;2023-09-18T19:50:50;99872.50;;;23.36;62.41
58757;BME280;44527;47.460;19.016;2023-09-18T19:53:53;99858.47;;;23.34;62.28
58757;BME280;44527;47.460;19.016;2023-09-18T19:56:56;99859.28;;;23.35;62.18
58757;BME280;44527;47.460;19.016;2023-09-18T19:59:59;99852.00;;;23.22;63.02
58757;BME280;44527;47.460;19.016;2023-09-18T20:03:02;99856.91;;;23.19;62.63
58757;BME280;44527;47.460;19.016;2023-09-18T20:06:05;99863.22;;;23.11;63.21
58757;BME280;44527;47.460;19.016;2023-09-18T20:09:11;99856.50;;;23.15;63.03
58757;BME280;44527;47.460;19.016;2023-09-18T20:12:14;99860.56;;;23.11;63.55
58757;BME280;44527;47.460;19.016;2023-09-18T20:15:18;99867.38;;;23.13;63.57
58757;BME280;44527;47.460;19.016;2023-09-18T20:18:21;99857.50;;;23.14;64.12
58757;BME280;44527;47.460;19.016;2023-09-18T20:21:23;99855.66;;;23.14;64.09
58757;BME280;44527;47.460;19.016;2023-09-18T20:24:26;99859.78;;;23.17;64.18
58757;BME280;44527;47.460;19.016;2023-09-18T20:27:29;99861.44;;;23.18;64.32
58757;BME280;44527;47.460;19.016;2023-09-18T20:30:35;99856.28;;;23.16;64.56
58757;BME280;44527;47.460;19.016;2023-09-18T20:33:38;99851.69;;;23.10;65.04
58757;BME280;44527;47.460;19.016;2023-09-18T20:36:41;99842.03;;;23.09;65.51
58757;BME280;44527;47.460;19.016;2023-09-18T20:39:44;99844.06;;;23.07;65.89
58757;BME280;44527;47.460;19.016;2023-09-18T20:42:46;99840.16;;;23.10;66.30
58757;BME280;44527;47.460;19.016;2023-09-18T20:45:50;99847.38;;;23.09;66.54
58757;BME280;44527;47.460;19.016;2023-09-18T20:48:54;99842.28;;;23.14;66.82
58757;BME280;44527;47.460;19.016;2023-09-18T20:52:05;99834.03;;;23.16;67.10
58757;BME280;44527;47.460;19.016;2023-09-18T20:55:08;99836.53;;;23.17;67.58
58757;BME280;44527;47.460;19.016;2023-09-18T20:58:11;99825.03;;;23.24;67.64
58757;BME280;44527;47.460;19.016;2023-09-18T21:01:15;99831.00;;;23.26;67.84
58757;BME280;44527;47.460;19.016;2023-09-18T21:04:17;99821.59;;;23.30;68.03
58757;BME280;44527;47.460;19.016;2023-09-18T21:07:21;99819.94;;;23.35;68.06
58757;BME280;44527;47.460;19.016;2023-09-18T21:10:24;99828.81;;;23.36;68.25
58757;BME280;44527;47.460;19.016;2023-09-18T21:13:34;99821.41;;;23.38;68.33
58757;BME280;44527;47.460;19.016;2023-09-18T21:16:37;99822.88;;;23.40;68.25
58757;BME280;44527;47.460;19.016;2023-09-18T21:19:41;99815.22;;;23.37;68.49
58757;BME280;44527;47.460;19.016;2023-09-18T21:22:43;99820.59;;;23.37;68.50
58757;BME280;44527;47.460;19.016;2023-09-18T21:25:50;99820.81;;;23.43;68.42
58757;BME280;44527;47.460;19.016;2023-09-18T21:28:52;99819.16;;;23.42;68.68
58757;BME280;44527;47.460;19.016;2023-09-18T21:31:55;99821.00;;;23.41;68.67
58757;BME280;44527;47.460;19.016;2023-09-18T21:35:00;99817.25;;;23.35;68.77
58757;BME280;44527;47.460;19.016;2023-09-18T21:38:05;99819.34;;;23.33;68.99
58757;BME280;44527;47.460;19.016;2023-09-18T21:41:09;99820.97;;;23.34;68.85
58757;BME280;44527;47.460;19.016;2023-09-18T21:44:13;99832.94;;;23.38;68.13
58757;BME280;44527;47.460;19.016;2023-09-18T21:47:17;99829.25;;;23.39;68.10
58757;BME280;44527;47.460;19.016;2023-09-18T21:50:20;99810.69;;;23.38;67.87
58757;BME280;44527;47.460;19.016;2023-09-18T21:53:23;99827.97;;;23.35;67.86
58757;BME280;44527;47.460;19.016;2023-09-18T21:56:26;99821.19;;;23.33;68.01
58757;BME280;44527;47.460;19.016;2023-09-18T21:59:30;99819.91;;;23.29;68.15
58757;BME280;44527;47.460;19.016;2023-09-18T22:02:33;99814.75;;;23.27;68.29
58757;BME280;44527;47.460;19.016;2023-09-18T22:05:39;99814.50;;;23.22;68.33
58757;BME280;44527;47.460;19.016;2023-09-18T22:08:42;99816.75;;;23.19;68.56
58757;BME280;44527;47.460;19.016;2023-09-18T22:11:45;99812.84;;;23.14;68.75
58757;BME280;44527;47.460;19.016;2023-09-18T22:14:47;99811.16;;;23.13;68.32
58757;BME280;44527;47.460;19.016;2023-09-18T22:17:52;99809.91;;;23.09;68.62
58757;BME280;44527;47.460;19.016;2023-09-18T22:20:56;99809.47;;;23.06;68.88
58757;BME280;44527;47.460;19.016;2023-09-18T22:23:59;99808.19;;;23.02;68.85
58757;BME280;44527;47.460;19.016;2023-09-18T22:27:01;99817.25;;;23.01;69.14
58757;BME280;44527;47.460;19.016;2023-09-18T22:30:05;99816.19;;;22.95;69.04
58757;BME280;44527;47.460;19.016;2023-09-18T22:33:08;99809.94;;;22.88;69.39
58757;BME280;44527;47.460;19.016;2023-09-18T22:36:14;99806.00;;;22.84;69.44
58757;BME280;44527;47.460;19.016;2023-09-18T22:56:57;99785.63;;;22.61;70.80
58757;BME280;44527;47.460;19.016;2023-09-18T22:59:59;99785.00;;;22.59;71.22
58757;BME280;44527;47.460;19.016;2023-09-18T23:03:04;99782.72;;;22.56;71.29
58757;BME280;44527;47.460;19.016;2023-09-18T23:06:07;99786.16;;;22.50;71.66
58757;BME280;44527;47.460;19.016;2023-09-18T23:09:10;99771.56;;;22.53;71.60
58757;BME280;44527;47.460;19.016;2023-09-18T23:12:18;99778.53;;;22.47;71.86
58757;BME280;44527;47.460;19.016;2023-09-18T23:15:22;99780.56;;;22.45;72.08
58757;BME280;44527;47.460;19.016;2023-09-18T23:18:25;99776.03;;;22.45;72.29
58757;BME280;44527;47.460;19.016;2023-09-18T23:21:28;99780.56;;;22.45;72.23
58757;BME280;44527;47.460;19.016;2023-09-18T23:24:32;99777.06;;;22.44;72.21
58757;BME280;44527;47.460;19.016;2023-09-18T23:27:36;99776.47;;;22.49;71.99
58757;BME280;44527;47.460;19.016;2023-09-18T23:30:40;99774.44;;;22.51;71.80
58757;BME280;44527;47.460;19.016;2023-09-18T23:33:43;99775.16;;;22.38;72.36
58757;BME280;44527;47.460;19.016;2023-09-18T23:36:49;99769.00;;;22.38;72.16
58757;BME280;44527;47.460;19.016;2023-09-18T23:39:52;99772.59;;;22.30;72.57
58757;BME280;44527;47.460;19.016;2023-09-18T23:42:55;99776.47;;;22.28;72.73
58757;BME280;44527;47.460;19.016;2023-09-18T23:45:58;99765.72;;;22.21;73.18
58757;BME280;44527;47.460;19.016;2023-09-18T23:49:01;99768.62;;;22.19;73.09
58757;BME280;44527;47.460;19.016;2023-09-18T23:52:03;99771.00;;;22.14;73.58
58757;BME280;44527;47.460;19.016;2023-09-18T23:55:06;99776.22;;;22.01;74.30
58757;BME280;44527;47.460;19.016;2023-09-18T23:58:12;99763.84;;;22.00;74.07
